sensor_id;sensor_type;location;lat;lon;timestamp;P1;durP1;ratioP1;P2;durP2;ratioP2
53549;SDS011;67273;52.914;-0.982;2023-04-24T00:00:43;3.53;;;2.05;;
53549;SDS011;67273;52.914;-0.982;2023-04-24T00:03:10;3.63;;;2.10;;
53549;SDS011;67273;52.914;-0.982;2023-04-24T00:05:37;3.40;;;2.03;;
53549;SDS011;67273;52.914;-0.982;2023-04-24T00:08:05;4.15;;;2.28;;
53549;SDS011;67273;52.914;-0.982;2023-04-24T00:10:31;2.80;;;1.98;;
53549;SDS011;67273;52.914;-0.982;2023-04-24T00:12:57;4.47;;;2.30;;
53549;SDS011;67273;52.914;-0.982;2023-04-24T00:15:23;3.25;;;2.00;;
53549;SDS011;67273;52.914;-0.982;2023-04-24T00:17:48;3.42;;;2.00;;
53549;SDS011;67273;52.914;-0.982;2023-04-24T00:20:14;4.30;;;2.03;;
53549;SDS011;67273;52.914;-0.982;2023-04-24T00:22:42;3.35;;;2.00;;
53549;SDS011;67273;52.914;-0.982;2023-04-24T00:25:08;2.78;;;2.15;;
53549;SDS011;67273;52.914;-0.982;2023-04-24T00:27:34;3.10;;;2.08;;
53549;SDS011;67273;52.914;-0.982;2023-04-24T00:30:02;3.25;;;1.95;;
53549;SDS011;67273;52.914;-0.982;2023-04-24T00:32:28;3.47;;;2.13;;
53549;SDS011;67273;52.914;-0.982;2023-04-24T00:34:54;2.50;;;1.85;;
53549;SDS011;67273;52.914;-0.982;2023-04-24T00:37:20;3.85;;;2.13;;
53549;SDS011;67273;52.914;-0.982;2023-04-24T00:39:47;3.90;;;2.17;;
53549;SDS011;67273;52.914;-0.982;2023-04-24T00:42:13;3.17;;;1.80;;
53549;SDS011;67273;52.914;-0.982;2023-04-24T00:44:40;3.65;;;2.00;;
53549;SDS011;67273;52.914;-0.982;2023-04-24T00:47:06;2.83;;;1.80;;
53549;SDS011;67273;52.914;-0.982;2023-04-24T00:49:32;3.70;;;2.00;;
53549;SDS011;67273;52.914;-0.982;2023-04-24T00:51:58;4.15;;;2.03;;
53549;SDS011;67273;52.914;-0.982;2023-04-24T00:54:24;2.83;;;1.77;;
53549;SDS011;67273;52.914;-0.982;2023-04-24T00:56:51;2.75;;;1.80;;
53549;SDS011;67273;52.914;-0.982;2023-04-24T00:59:17;2.25;;;1.60;;
53549;SDS011;67273;52.914;-0.982;2023-04-24T01:01:43;3.55;;;1.83;;
53549;SDS011;67273;52.914;-0.982;2023-04-24T01:04:10;4.57;;;2.15;;
53549;SDS011;67273;52.914;-0.982;2023-04-24T01:06:37;2.67;;;1.80;;
53549;SDS011;67273;52.914;-0.982;2023-04-24T01:09:04;2.92;;;1.73;;
53549;SDS011;67273;52.914;-0.982;2023-04-24T01:11:31;2.28;;;1.65;;
53549;SDS011;67273;52.914;-0.982;2023-04-24T01:13:58;2.80;;;1.92;;
53549;SDS011;67273;52.914;-0.982;2023-04-24T01:16:24;3.92;;;1.80;;
53549;SDS011;67273;52.914;-0.982;2023-04-24T01:18:53;3.58;;;1.70;;
53549;SDS011;67273;52.914;-0.982;2023-04-24T01:21:18;3.40;;;1.90;;
53549;SDS011;67273;52.914;-0.982;2023-04-24T01:23:47;2.63;;;1.90;;
53549;SDS011;67273;52.914;-0.982;2023-04-24T01:26:16;2.15;;;1.60;;
53549;SDS011;67273;52.914;-0.982;2023-04-24T01:28:45;2.83;;;1.95;;
53549;SDS011;67273;52.914;-0.982;2023-04-24T01:31:11;2.70;;;1.65;;
53549;SDS011;67273;52.914;-0.982;2023-04-24T01:33:37;3.13;;;1.75;;
53549;SDS011;67273;52.914;-0.982;2023-04-24T01:36:03;3.15;;;1.75;;
53549;SDS011;67273;52.914;-0.982;2023-04-24T01:38:30;1.48;;;1.38;;
53549;SDS011;67273;52.914;-0.982;2023-04-24T01:41:01;2.92;;;1.80;;
53549;SDS011;67273;52.914;-0.982;2023-04-24T01:43:29;2.08;;;1.55;;
53549;SDS011;67273;52.914;-0.982;2023-04-24T01:45:57;3.40;;;1.90;;
53549;SDS011;67273;52.914;-0.982;2023-04-24T01:48:22;3.28;;;1.90;;
53549;SDS011;67273;52.914;-0.982;2023-04-24T01:50:48;2.45;;;1.60;;
53549;SDS011;67273;52.914;-0.982;2023-04-24T01:53:14;2.63;;;1.85;;
53549;SDS011;67273;52.914;-0.982;2023-04-24T01:55:41;2.60;;;1.60;;
53549;SDS011;67273;52.914;-0.982;2023-04-24T01:58:08;3.15;;;1.60;;
53549;SDS011;67273;52.914;-0.982;2023-04-24T02:00:36;2.63;;;1.80;;
53549;SDS011;67273;52.914;-0.982;2023-04-24T02:03:05;3.42;;;1.70;;
53549;SDS011;67273;52.914;-0.982;2023-04-24T02:05:34;3.35;;;1.90;;
53549;SDS011;67273;52.914;-0.982;2023-04-24T02:08:03;2.97;;;1.70;;
53549;SDS011;67273;52.914;-0.982;2023-04-24T02:10:31;2.40;;;1.50;;
53549;SDS011;67273;52.914;-0.982;2023-04-24T02:12:59;2.00;;;1.50;;
53549;SDS011;67273;52.914;-0.982;2023-04-24T02:15:29;3.20;;;1.77;;
53549;SDS011;67273;52.914;-0.982;2023-04-24T02:17:57;3.25;;;1.55;;
53549;SDS011;67273;52.914;-0.982;2023-04-24T02:20:25;2.60;;;1.50;;
53549;SDS011;67273;52.914;-0.982;2023-04-24T02:22:54;3.72;;;1.70;;
53549;SDS011;67273;52.914;-0.982;2023-04-24T02:25:23;2.70;;;1.60;;
53549;SDS011;67273;52.914;-0.982;2023-04-24T02:27:54;3.35;;;1.65;;
53549;SDS011;67273;52.914;-0.982;2023-04-24T02:30:25;2.35;;;1.58;;
53549;SDS011;67273;52.914;-0.982;2023-04-24T02:32:56;2.55;;;1.60;;
53549;SDS011;67273;52.914;-0.982;2023-04-24T02:35:24;3.95;;;1.90;;
53549;SDS011;67273;52.914;-0.982;2023-04-24T02:37:49;1.83;;;1.35;;
53549;SDS011;67273;52.914;-0.982;2023-04-24T02:40:15;2.00;;;1.40;;
53549;SDS011;67273;52.914;-0.982;2023-04-24T02:42:41;3.13;;;1.63;;
53549;SDS011;67273;52.914;-0.982;2023-04-24T02:45:08;2.17;;;1.33;;
53549;SDS011;67273;52.914;-0.982;2023-04-24T02:47:34;2.42;;;1.40;;
53549;SDS011;67273;52.914;-0.982;2023-04-24T02:50:01;3.00;;;1.52;;
53549;SDS011;67273;52.914;-0.982;2023-04-24T02:52:28;2.80;;;1.40;;
53549;SDS011;67273;52.914;-0.982;2023-04-24T02:54:53;2.67;;;1.50;;
53549;SDS011;67273;52.914;-0.982;2023-04-24T02:57:19;3.60;;;1.50;;
53549;SDS011;67273;52.914;-0.982;2023-04-24T02:59:45;2.65;;;1.48;;
53549;SDS011;67273;52.914;-0.982;2023-04-24T03:02:11;2.22;;;1.50;;
53549;SDS011;67273;52.914;-0.982;2023-04-24T03:04:36;2.47;;;1.40;;
53549;SDS011;67273;52.914;-0.982;2023-04-24T03:07:03;2.33;;;1.35;;
53549;SDS011;67273;52.914;-0.982;2023-04-24T03:09:29;2.00;;;1.45;;
53549;SDS011;67273;52.914;-0.982;2023-04-24T03:11:55;2.42;;;1.60;;
53549;SDS011;67273;52.914;-0.982;2023-04-24T03:14:24;2.13;;;1.30;;
53549;SDS011;67273;52.914;-0.982;2023-04-24T03:16:49;2.35;;;1.42;;
53549;SDS011;67273;52.914;-0.982;2023-04-24T03:19:15;2.00;;;1.35;;
53549;SDS011;67273;52.914;-0.982;2023-04-24T03:21:57;2.95;;;1.70;;
53549;SDS011;67273;52.914;-0.982;2023-04-24T03:24:24;2.45;;;1.48;;
53549;SDS011;67273;52.914;-0.982;2023-04-24T03:26:53;1.60;;;1.25;;
53549;SDS011;67273;52.914;-0.982;2023-04-24T03:29:42;2.65;;;1.40;;
53549;SDS011;67273;52.914;-0.982;2023-04-24T03:32:08;1.73;;;1.38;;
53549;SDS011;67273;52.914;-0.982;2023-04-24T03:34:35;3.20;;;1.25;;
53549;SDS011;67273;52.914;-0.982;2023-04-24T03:37:01;2.67;;;1.48;;
53549;SDS011;67273;52.914;-0.982;2023-04-24T03:39:29;2.22;;;1.30;;
53549;SDS011;67273;52.914;-0.982;2023-04-24T03:41:55;3.35;;;1.42;;
53549;SDS011;67273;52.914;-0.982;2023-04-24T03:44:27;2.80;;;1.50;;
53549;SDS011;67273;52.914;-0.982;2023-04-24T03:46:54;2.90;;;1.40;;
53549;SDS011;67273;52.914;-0.982;2023-04-24T03:49:22;2.67;;;1.55;;
53549;SDS011;67273;52.914;-0.982;2023-04-24T03:51:48;2.85;;;1.40;;
53549;SDS011;67273;52.914;-0.982;2023-04-24T03:54:21;3.17;;;1.42;;
53549;SDS011;67273;52.914;-0.982;2023-04-24T03:56:49;2.65;;;1.30;;
53549;SDS011;67273;52.914;-0.982;2023-04-24T03:59:15;2.15;;;1.20;;
53549;SDS011;67273;52.914;-0.982;2023-04-24T04:01:45;1.70;;;0.93;;
53549;SDS011;67273;52.914;-0.982;2023-04-24T04:04:16;2.45;;;1.30;;
53549;SDS011;67273;52.914;-0.982;2023-04-24T04:06:43;1.55;;;1.17;;
53549;SDS011;67273;52.914;-0.982;2023-04-24T04:09:09;2.45;;;1.23;;
53549;SDS011;67273;52.914;-0.982;2023-04-24T04:11:35;2.00;;;1.35;;
53549;SDS011;67273;52.914;-0.982;2023-04-24T04:14:03;1.70;;;1.15;;
53549;SDS011;67273;52.914;-0.982;2023-04-24T04:16:30;2.15;;;1.25;;
53549;SDS011;67273;52.914;-0.982;2023-04-24T04:19:03;1.40;;;1.08;;
53549;SDS011;67273;52.914;-0.982;2023-04-24T04:21:32;1.52;;;1.13;;
53549;SDS011;67273;52.914;-0.982;2023-04-24T04:24:18;2.53;;;1.45;;
53549;SDS011;67273;52.914;-0.982;2023-04-24T04:26:46;2.47;;;1.30;;
53549;SDS011;67273;52.914;-0.982;2023-04-24T04:29:19;1.67;;;1.02;;
53549;SDS011;67273;52.914;-0.982;2023-04-24T04:31:46;2.17;;;1.27;;
53549;SDS011;67273;52.914;-0.982;2023-04-24T04:34:13;2.45;;;1.30;;
53549;SDS011;67273;52.914;-0.982;2023-04-24T04:36:40;2.28;;;1.23;;
53549;SDS011;67273;52.914;-0.982;2023-04-24T04:39:44;1.60;;;1.20;;
53549;SDS011;67273;52.914;-0.982;2023-04-24T04:42:19;2.38;;;1.20;;
53549;SDS011;67273;52.914;-0.982;2023-04-24T04:44:48;2.47;;;1.10;;
53549;SDS011;67273;52.914;-0.982;2023-04-24T04:47:21;1.85;;;1.33;;
53549;SDS011;67273;52.914;-0.982;2023-04-24T04:49:52;1.98;;;1.20;;
53549;SDS011;67273;52.914;-0.982;2023-04-24T04:52:21;2.08;;;1.30;;
53549;SDS011;67273;52.914;-0.982;2023-04-24T04:54:54;2.25;;;1.30;;
53549;SDS011;67273;52.914;-0.982;2023-04-24T04:57:24;2.70;;;1.40;;
53549;SDS011;67273;52.914;-0.982;2023-04-24T04:59:54;2.83;;;1.30;;
53549;SDS011;67273;52.914;-0.982;2023-04-24T05:02:33;2.00;;;1.20;;
53549;SDS011;67273;52.914;-0.982;2023-04-24T05:05:00;1.42;;;1.05;;
53549;SDS011;67273;52.914;-0.982;2023-04-24T05:07:28;4.35;;;1.33;;
53549;SDS011;67273;52.914;-0.982;2023-04-24T05:09:55;2.25;;;1.30;;
53549;SDS011;67273;52.914;-0.982;2023-04-24T05:12:21;3.47;;;1.42;;
53549;SDS011;67273;52.914;-0.982;2023-04-24T05:14:51;2.05;;;1.45;;
53549;SDS011;67273;52.914;-0.982;2023-04-24T05:17:18;1.75;;;1.20;;
53549;SDS011;67273;52.914;-0.982;2023-04-24T05:19:44;2.72;;;1.27;;
53549;SDS011;67273;52.914;-0.982;2023-04-24T05:22:10;3.30;;;1.50;;
53549;SDS011;67273;52.914;-0.982;2023-04-24T05:24:46;2.20;;;1.10;;
53549;SDS011;67273;52.914;-0.982;2023-04-24T05:27:52;2.45;;;1.40;;
53549;SDS011;67273;52.914;-0.982;2023-04-24T05:30:21;2.20;;;1.20;;
53549;SDS011;67273;52.914;-0.982;2023-04-24T05:32:51;2.88;;;1.58;;
53549;SDS011;67273;52.914;-0.982;2023-04-24T05:35:19;1.83;;;1.15;;
53549;SDS011;67273;52.914;-0.982;2023-04-24T05:37:47;2.03;;;1.25;;
53549;SDS011;67273;52.914;-0.982;2023-04-24T05:40:13;2.15;;;1.20;;
53549;SDS011;67273;52.914;-0.982;2023-04-24T05:42:39;1.75;;;1.25;;
53549;SDS011;67273;52.914;-0.982;2023-04-24T05:45:05;1.30;;;1.10;;
53549;SDS011;67273;52.914;-0.982;2023-04-24T05:47:32;2.60;;;1.20;;
53549;SDS011;67273;52.914;-0.982;2023-04-24T05:50:01;1.52;;;1.10;;
53549;SDS011;67273;52.914;-0.982;2023-04-24T05:52:28;2.45;;;1.20;;
53549;SDS011;67273;52.914;-0.982;2023-04-24T05:54:54;2.13;;;1.15;;
53549;SDS011;67273;52.914;-0.982;2023-04-24T05:57:24;2.10;;;1.20;;
53549;SDS011;67273;52.914;-0.982;2023-04-24T05:59:59;1.90;;;1.08;;
53549;SDS011;67273;52.914;-0.982;2023-04-24T06:02:28;3.05;;;1.20;;
53549;SDS011;67273;52.914;-0.982;2023-04-24T06:04:59;3.03;;;1.20;;
53549;SDS011;67273;52.914;-0.982;2023-04-24T06:07:26;3.20;;;1.17;;
53549;SDS011;67273;52.914;-0.982;2023-04-24T06:09:52;2.70;;;1.38;;
53549;SDS011;67273;52.914;-0.982;2023-04-24T06:12:18;1.63;;;1.00;;
53549;SDS011;67273;52.914;-0.982;2023-04-24T06:14:54;1.95;;;1.00;;
53549;SDS011;67273;52.914;-0.982;2023-04-24T06:17:29;2.00;;;1.10;;
53549;SDS011;67273;52.914;-0.982;2023-04-24T06:19:57;2.08;;;1.30;;
53549;SDS011;67273;52.914;-0.982;2023-04-24T06:22:25;2.45;;;1.17;;
53549;SDS011;67273;52.914;-0.982;2023-04-24T06:24:57;1.35;;;0.98;;
53549;SDS011;67273;52.914;-0.982;2023-04-24T06:27:25;2.20;;;1.20;;
53549;SDS011;67273;52.914;-0.982;2023-04-24T06:29:53;2.08;;;1.20;;
53549;SDS011;67273;52.914;-0.982;2023-04-24T06:32:21;1.83;;;1.05;;
53549;SDS011;67273;52.914;-0.982;2023-04-24T06:34:48;2.83;;;1.33;;
53549;SDS011;67273;52.914;-0.982;2023-04-24T06:37:15;1.73;;;1.10;;
53549;SDS011;67273;52.914;-0.982;2023-04-24T06:39:44;1.23;;;0.98;;
53549;SDS011;67273;52.914;-0.982;2023-04-24T06:42:10;1.40;;;1.15;;
53549;SDS011;67273;52.914;-0.982;2023-04-24T06:44:37;1.83;;;1.10;;
53549;SDS011;67273;52.914;-0.982;2023-04-24T06:47:08;1.95;;;1.10;;
53549;SDS011;67273;52.914;-0.982;2023-04-24T06:49:35;2.25;;;1.20;;
53549;SDS011;67273;52.914;-0.982;2023-04-24T06:52:01;1.95;;;1.00;;
53549;SDS011;67273;52.914;-0.982;2023-04-24T06:54:26;3.70;;;1.30;;
53549;SDS011;67273;52.914;-0.982;2023-04-24T06:56:53;2.95;;;1.27;;
53549;SDS011;67273;52.914;-0.982;2023-04-24T06:59:19;3.45;;;1.20;;
53549;SDS011;67273;52.914;-0.982;2023-04-24T07:01:45;2.78;;;1.20;;
53549;SDS011;67273;52.914;-0.982;2023-04-24T07:04:11;2.88;;;1.38;;
53549;SDS011;67273;52.914;-0.982;2023-04-24T07:06:38;1.83;;;1.10;;
53549;SDS011;67273;52.914;-0.982;2023-04-24T07:09:04;2.33;;;1.10;;
53549;SDS011;67273;52.914;-0.982;2023-04-24T07:11:30;2.58;;;1.40;;
53549;SDS011;67273;52.914;-0.982;2023-04-24T07:13:57;1.65;;;1.23;;
53549;SDS011;67273;52.914;-0.982;2023-04-24T07:16:22;4.18;;;1.58;;
53549;SDS011;67273;52.914;-0.982;2023-04-24T07:18:49;5.28;;;1.60;;
53549;SDS011;67273;52.914;-0.982;2023-04-24T07:21:16;4.22;;;1.48;;
53549;SDS011;67273;52.914;-0.982;2023-04-24T07:23:42;3.40;;;1.20;;
53549;SDS011;67273;52.914;-0.982;2023-04-24T07:26:07;4.20;;;1.60;;
53549;SDS011;67273;52.914;-0.982;2023-04-24T07:28:33;3.53;;;1.20;;
53549;SDS011;67273;52.914;-0.982;2023-04-24T07:31:01;3.45;;;1.40;;
53549;SDS011;67273;52.914;-0.982;2023-04-24T07:33:26;3.65;;;1.30;;
53549;SDS011;67273;52.914;-0.982;2023-04-24T07:35:52;4.03;;;1.40;;
53549;SDS011;67273;52.914;-0.982;2023-04-24T07:38:18;2.75;;;1.25;;
53549;SDS011;67273;52.914;-0.982;2023-04-24T07:40:47;2.38;;;1.33;;
53549;SDS011;67273;52.914;-0.982;2023-04-24T07:43:13;5.22;;;1.70;;
53549;SDS011;67273;52.914;-0.982;2023-04-24T07:45:38;8.77;;;2.03;;
53549;SDS011;67273;52.914;-0.982;2023-04-24T07:48:06;2.78;;;1.50;;
53549;SDS011;67273;52.914;-0.982;2023-04-24T07:50:34;6.88;;;1.80;;
53549;SDS011;67273;52.914;-0.982;2023-04-24T07:53:01;3.55;;;1.60;;
53549;SDS011;67273;52.914;-0.982;2023-04-24T07:55:27;3.67;;;1.60;;
53549;SDS011;67273;52.914;-0.982;2023-04-24T07:57:52;4.85;;;1.77;;
53549;SDS011;67273;52.914;-0.982;2023-04-24T08:00:18;4.07;;;1.60;;
53549;SDS011;67273;52.914;-0.982;2023-04-24T08:02:45;2.53;;;1.48;;
53549;SDS011;67273;52.914;-0.982;2023-04-24T08:05:12;4.75;;;1.70;;
53549;SDS011;67273;52.914;-0.982;2023-04-24T08:07:38;6.70;;;2.10;;
53549;SDS011;67273;52.914;-0.982;2023-04-24T08:10:04;5.97;;;1.80;;
53549;SDS011;67273;52.914;-0.982;2023-04-24T08:12:30;4.15;;;1.83;;
53549;SDS011;67273;52.914;-0.982;2023-04-24T08:14:56;4.90;;;1.90;;
53549;SDS011;67273;52.914;-0.982;2023-04-24T08:17:22;4.70;;;1.77;;
53549;SDS011;67273;52.914;-0.982;2023-04-24T08:19:48;3.60;;;1.50;;
53549;SDS011;67273;52.914;-0.982;2023-04-24T08:22:15;3.35;;;1.40;;
53549;SDS011;67273;52.914;-0.982;2023-04-24T08:24:41;3.00;;;1.50;;
53549;SDS011;67273;52.914;-0.982;2023-04-24T08:27:07;4.22;;;1.48;;
53549;SDS011;67273;52.914;-0.982;2023-04-24T08:29:33;2.55;;;1.50;;
53549;SDS011;67273;52.914;-0.982;2023-04-24T08:31:59;5.72;;;1.58;;
53549;SDS011;67273;52.914;-0.982;2023-04-24T08:34:25;3.97;;;1.75;;
53549;SDS011;67273;52.914;-0.982;2023-04-24T08:36:50;6.00;;;2.05;;
53549;SDS011;67273;52.914;-0.982;2023-04-24T08:39:17;3.85;;;1.65;;
53549;SDS011;67273;52.914;-0.982;2023-04-24T08:41:43;5.75;;;1.58;;
53549;SDS011;67273;52.914;-0.982;2023-04-24T08:44:10;4.45;;;1.85;;
53549;SDS011;67273;52.914;-0.982;2023-04-24T08:46:36;5.63;;;1.98;;
53549;SDS011;67273;52.914;-0.982;2023-04-24T08:49:03;6.97;;;1.80;;
53549;SDS011;67273;52.914;-0.982;2023-04-24T08:51:29;5.10;;;1.90;;
53549;SDS011;67273;52.914;-0.982;2023-04-24T08:53:56;7.28;;;1.63;;
53549;SDS011;67273;52.914;-0.982;2023-04-24T08:56:24;3.38;;;1.48;;
53549;SDS011;67273;52.914;-0.982;2023-04-24T08:58:50;7.55;;;1.90;;
53549;SDS011;67273;52.914;-0.982;2023-04-24T09:01:16;4.53;;;1.63;;
53549;SDS011;67273;52.914;-0.982;2023-04-24T09:03:43;6.97;;;1.70;;
53549;SDS011;67273;52.914;-0.982;2023-04-24T09:06:10;5.88;;;1.92;;
53549;SDS011;67273;52.914;-0.982;2023-04-24T09:08:36;8.88;;;1.80;;
53549;SDS011;67273;52.914;-0.982;2023-04-24T09:11:05;4.47;;;1.90;;
53549;SDS011;67273;52.914;-0.982;2023-04-24T09:13:32;5.82;;;1.77;;
53549;SDS011;67273;52.914;-0.982;2023-04-24T09:15:58;4.40;;;1.80;;
53549;SDS011;67273;52.914;-0.982;2023-04-24T09:18:25;6.47;;;1.95;;
53549;SDS011;67273;52.914;-0.982;2023-04-24T09:20:57;5.07;;;1.92;;
53549;SDS011;67273;52.914;-0.982;2023-04-24T09:23:25;6.53;;;1.92;;
53549;SDS011;67273;52.914;-0.982;2023-04-24T09:25:53;6.82;;;1.83;;
53549;SDS011;67273;52.914;-0.982;2023-04-24T09:28:22;6.57;;;1.80;;
53549;SDS011;67273;52.914;-0.982;2023-04-24T09:31:02;6.90;;;1.95;;
53549;SDS011;67273;52.914;-0.982;2023-04-24T09:33:29;5.03;;;1.65;;
53549;SDS011;67273;52.914;-0.982;2023-04-24T09:35:55;2.75;;;1.60;;
53549;SDS011;67273;52.914;-0.982;2023-04-24T09:38:24;4.63;;;1.90;;
53549;SDS011;67273;52.914;-0.982;2023-04-24T09:40:58;5.88;;;1.92;;
53549;SDS011;67273;52.914;-0.982;2023-04-24T09:43:26;9.63;;;1.60;;
53549;SDS011;67273;52.914;-0.982;2023-04-24T09:45:53;6.05;;;2.00;;
53549;SDS011;67273;52.914;-0.982;2023-04-24T09:48:30;3.67;;;1.50;;
53549;SDS011;67273;52.914;-0.982;2023-04-24T09:50:57;5.30;;;1.88;;
53549;SDS011;67273;52.914;-0.982;2023-04-24T09:53:23;6.95;;;2.22;;
53549;SDS011;67273;52.914;-0.982;2023-04-24T09:55:49;5.47;;;1.90;;
53549;SDS011;67273;52.914;-0.982;2023-04-24T09:58:15;4.25;;;2.00;;
53549;SDS011;67273;52.914;-0.982;2023-04-24T10:00:41;3.50;;;1.83;;
53549;SDS011;67273;52.914;-0.982;2023-04-24T10:03:07;5.93;;;2.30;;
53549;SDS011;67273;52.914;-0.982;2023-04-24T10:05:35;6.38;;;1.83;;
53549;SDS011;67273;52.914;-0.982;2023-04-24T10:08:03;7.07;;;2.10;;
53549;SDS011;67273;52.914;-0.982;2023-04-24T10:10:30;4.50;;;2.20;;
53549;SDS011;67273;52.914;-0.982;2023-04-24T10:12:56;4.70;;;2.15;;
53549;SDS011;67273;52.914;-0.982;2023-04-24T10:15:22;4.72;;;2.10;;
53549;SDS011;67273;52.914;-0.982;2023-04-24T10:17:50;4.65;;;2.08;;
53549;SDS011;67273;52.914;-0.982;2023-04-24T10:20:20;3.90;;;1.75;;
53549;SDS011;67273;52.914;-0.982;2023-04-24T10:22:49;4.57;;;1.90;;
53549;SDS011;67273;52.914;-0.982;2023-04-24T10:25:16;4.47;;;2.10;;
53549;SDS011;67273;52.914;-0.982;2023-04-24T10:27:43;5.57;;;1.80;;
53549;SDS011;67273;52.914;-0.982;2023-04-24T10:30:11;6.07;;;1.80;;
53549;SDS011;67273;52.914;-0.982;2023-04-24T10:32:38;5.50;;;2.10;;
53549;SDS011;67273;52.914;-0.982;2023-04-24T10:35:04;6.35;;;2.20;;
53549;SDS011;67273;52.914;-0.982;2023-04-24T10:37:33;7.53;;;2.10;;
53549;SDS011;67273;52.914;-0.982;2023-04-24T10:40:04;4.32;;;2.05;;
53549;SDS011;67273;52.914;-0.982;2023-04-24T10:42:31;5.45;;;1.80;;
53549;SDS011;67273;52.914;-0.982;2023-04-24T10:44:57;4.70;;;2.00;;
53549;SDS011;67273;52.914;-0.982;2023-04-24T10:47:23;5.18;;;2.28;;
53549;SDS011;67273;52.914;-0.982;2023-04-24T10:49:50;5.22;;;1.90;;
53549;SDS011;67273;52.914;-0.982;2023-04-24T10:52:17;4.88;;;2.13;;
53549;SDS011;67273;52.914;-0.982;2023-04-24T10:54:44;14.68;;;2.17;;
53549;SDS011;67273;52.914;-0.982;2023-04-24T10:57:27;7.90;;;2.10;;
53549;SDS011;67273;52.914;-0.982;2023-04-24T11:00:15;5.03;;;1.85;;
53549;SDS011;67273;52.914;-0.982;2023-04-24T11:02:45;5.35;;;1.95;;
53549;SDS011;67273;52.914;-0.982;2023-04-24T11:05:14;5.38;;;1.85;;
53549;SDS011;67273;52.914;-0.982;2023-04-24T11:10:37;4.50;;;1.85;;
53549;SDS011;67273;52.914;-0.982;2023-04-24T11:13:05;4.13;;;1.80;;
53549;SDS011;67273;52.914;-0.982;2023-04-24T11:15:32;5.38;;;2.00;;
53549;SDS011;67273;52.914;-0.982;2023-04-24T11:17:57;7.43;;;1.90;;
53549;SDS011;67273;52.914;-0.982;2023-04-24T11:20:23;6.15;;;2.10;;
53549;SDS011;67273;52.914;-0.982;2023-04-24T11:22:52;4.35;;;1.95;;
53549;SDS011;67273;52.914;-0.982;2023-04-24T11:25:19;7.18;;;2.10;;
53549;SDS011;67273;52.914;-0.982;2023-04-24T11:27:47;5.82;;;1.77;;
53549;SDS011;67273;52.914;-0.982;2023-04-24T11:30:18;3.17;;;1.77;;
53549;SDS011;67273;52.914;-0.982;2023-04-24T11:32:47;4.63;;;1.60;;
53549;SDS011;67273;52.914;-0.982;2023-04-24T11:35:15;3.58;;;1.80;;
53549;SDS011;67273;52.914;-0.982;2023-04-24T11:37:42;4.00;;;1.60;;
53549;SDS011;67273;52.914;-0.982;2023-04-24T11:40:14;4.97;;;1.90;;
53549;SDS011;67273;52.914;-0.982;2023-04-24T11:42:41;4.68;;;1.80;;
53549;SDS011;67273;52.914;-0.982;2023-04-24T11:45:09;3.45;;;1.50;;
53549;SDS011;67273;52.914;-0.982;2023-04-24T11:47:37;5.40;;;1.80;;
53549;SDS011;67273;52.914;-0.982;2023-04-24T11:50:05;4.60;;;1.83;;
53549;SDS011;67273;52.914;-0.982;2023-04-24T11:52:33;5.07;;;2.00;;
53549;SDS011;67273;52.914;-0.982;2023-04-24T11:55:03;3.03;;;1.58;;
53549;SDS011;67273;52.914;-0.982;2023-04-24T11:57:29;3.92;;;1.77;;
53549;SDS011;67273;52.914;-0.982;2023-04-24T12:00:02;4.47;;;1.77;;
53549;SDS011;67273;52.914;-0.982;2023-04-24T12:02:38;5.05;;;1.70;;
53549;SDS011;67273;52.914;-0.982;2023-04-24T12:05:05;2.97;;;1.60;;
53549;SDS011;67273;52.914;-0.982;2023-04-24T12:07:31;4.03;;;1.80;;
53549;SDS011;67273;52.914;-0.982;2023-04-24T12:10:08;3.45;;;1.73;;
53549;SDS011;67273;52.914;-0.982;2023-04-24T12:12:34;3.92;;;1.75;;
53549;SDS011;67273;52.914;-0.982;2023-04-24T12:15:00;6.60;;;1.83;;
53549;SDS011;67273;52.914;-0.982;2023-04-24T12:17:27;6.43;;;1.80;;
53549;SDS011;67273;52.914;-0.982;2023-04-24T12:19:57;6.68;;;1.80;;
53549;SDS011;67273;52.914;-0.982;2023-04-24T12:22:24;3.58;;;1.55;;
53549;SDS011;67273;52.914;-0.982;2023-04-24T12:24:57;4.38;;;1.90;;
53549;SDS011;67273;52.914;-0.982;2023-04-24T12:27:24;3.22;;;1.38;;
53549;SDS011;67273;52.914;-0.982;2023-04-24T12:29:53;4.70;;;1.70;;
53549;SDS011;67273;52.914;-0.982;2023-04-24T12:32:21;4.20;;;1.80;;
53549;SDS011;67273;52.914;-0.982;2023-04-24T12:34:46;5.18;;;1.83;;
53549;SDS011;67273;52.914;-0.982;2023-04-24T12:37:13;3.35;;;1.52;;
53549;SDS011;67273;52.914;-0.982;2023-04-24T12:39:39;2.28;;;1.25;;
53549;SDS011;67273;52.914;-0.982;2023-04-24T12:42:25;6.20;;;1.88;;
53549;SDS011;67273;52.914;-0.982;2023-04-24T12:44:55;4.07;;;1.70;;
53549;SDS011;67273;52.914;-0.982;2023-04-24T12:47:23;5.63;;;1.65;;
53549;SDS011;67273;52.914;-0.982;2023-04-24T12:49:49;3.90;;;1.67;;
53549;SDS011;67273;52.914;-0.982;2023-04-24T12:52:18;3.55;;;1.42;;
53549;SDS011;67273;52.914;-0.982;2023-04-24T12:54:45;4.00;;;1.92;;
53549;SDS011;67273;52.914;-0.982;2023-04-24T12:57:11;7.50;;;1.85;;
53549;SDS011;67273;52.914;-0.982;2023-04-24T12:59:36;4.65;;;1.73;;
53549;SDS011;67273;52.914;-0.982;2023-04-24T13:02:02;7.65;;;1.95;;
53549;SDS011;67273;52.914;-0.982;2023-04-24T13:04:28;4.78;;;1.55;;
53549;SDS011;67273;52.914;-0.982;2023-04-24T13:06:54;3.45;;;1.80;;
53549;SDS011;67273;52.914;-0.982;2023-04-24T13:09:21;4.00;;;1.75;;
53549;SDS011;67273;52.914;-0.982;2023-04-24T13:11:46;3.72;;;1.70;;
53549;SDS011;67273;52.914;-0.982;2023-04-24T13:14:12;4.72;;;2.05;;
53549;SDS011;67273;52.914;-0.982;2023-04-24T13:16:38;11.90;;;1.75;;
53549;SDS011;67273;52.914;-0.982;2023-04-24T13:19:04;3.58;;;1.40;;
53549;SDS011;67273;52.914;-0.982;2023-04-24T13:21:30;4.15;;;1.83;;
53549;SDS011;67273;52.914;-0.982;2023-04-24T13:23:57;4.85;;;1.70;;
53549;SDS011;67273;52.914;-0.982;2023-04-24T13:26:24;4.47;;;1.88;;
53549;SDS011;67273;52.914;-0.982;2023-04-24T13:28:49;4.97;;;1.73;;
53549;SDS011;67273;52.914;-0.982;2023-04-24T13:31:15;3.95;;;1.70;;
53549;SDS011;67273;52.914;-0.982;2023-04-24T13:33:41;5.13;;;2.10;;
53549;SDS011;67273;52.914;-0.982;2023-04-24T13:36:07;5.60;;;1.90;;
53549;SDS011;67273;52.914;-0.982;2023-04-24T13:38:33;5.78;;;1.95;;
53549;SDS011;67273;52.914;-0.982;2023-04-24T13:40:59;4.43;;;1.52;;
53549;SDS011;67273;52.914;-0.982;2023-04-24T13:43:27;7.28;;;2.10;;
53549;SDS011;67273;52.914;-0.982;2023-04-24T13:45:52;6.28;;;1.60;;
53549;SDS011;67273;52.914;-0.982;2023-04-24T13:48:18;4.68;;;2.10;;
53549;SDS011;67273;52.914;-0.982;2023-04-24T13:50:44;6.82;;;2.13;;
53549;SDS011;67273;52.914;-0.982;2023-04-24T13:53:10;3.45;;;1.70;;
53549;SDS011;67273;52.914;-0.982;2023-04-24T13:55:35;4.75;;;1.70;;
53549;SDS011;67273;52.914;-0.982;2023-04-24T13:58:01;3.72;;;2.05;;
53549;SDS011;67273;52.914;-0.982;2023-04-24T14:00:29;4.97;;;2.00;;
53549;SDS011;67273;52.914;-0.982;2023-04-24T14:02:54;4.32;;;1.80;;
53549;SDS011;67273;52.914;-0.982;2023-04-24T14:05:20;5.05;;;1.70;;
53549;SDS011;67273;52.914;-0.982;2023-04-24T14:07:47;4.32;;;1.80;;
53549;SDS011;67273;52.914;-0.982;2023-04-24T14:10:12;5.32;;;1.60;;
53549;SDS011;67273;52.914;-0.982;2023-04-24T14:12:38;4.97;;;1.90;;
53549;SDS011;67273;52.914;-0.982;2023-04-24T14:15:05;6.03;;;1.98;;
53549;SDS011;67273;52.914;-0.982;2023-04-24T14:17:33;5.47;;;1.90;;
53549;SDS011;67273;52.914;-0.982;2023-04-24T14:19:58;3.63;;;1.85;;
53549;SDS011;67273;52.914;-0.982;2023-04-24T14:22:25;5.13;;;1.70;;
53549;SDS011;67273;52.914;-0.982;2023-04-24T14:24:51;7.30;;;1.95;;
53549;SDS011;67273;52.914;-0.982;2023-04-24T14:27:17;5.93;;;2.15;;
53549;SDS011;67273;52.914;-0.982;2023-04-24T14:29:43;4.13;;;1.95;;
53549;SDS011;67273;52.914;-0.982;2023-04-24T14:32:10;4.60;;;1.88;;
53549;SDS011;67273;52.914;-0.982;2023-04-24T14:34:37;5.82;;;1.65;;
53549;SDS011;67273;52.914;-0.982;2023-04-24T14:37:03;8.27;;;1.95;;
53549;SDS011;67273;52.914;-0.982;2023-04-24T14:39:29;7.32;;;1.80;;